Time;durP1;ratioP1;P1;durP2;ratioP2;P2;SDS_P1;SDS_P2;PMS_P1;PMS_P2;Temp;Humidity;BMP_temperature;BMP_pressure;BME280_temperature;BME280_humidity;BME280_pressure;Samples;Min_cycle;Max_cycle;Signal;HPM_P1;HPM_P2
2022/06/30 00:01:44;;;;;;;3.90;2.63;;;23.00;99.90;;;;;;7386815;19;20145;-75
2022/06/30 00:04:10;;;;;;;4.40;2.50;;;22.70;99.90;;;;;;7389052;19;20170;-74
2022/06/30 00:06:36;;;;;;;2.95;2.50;;;22.60;99.90;;;;;;7385248;19;20138;-79
2022/06/30 00:09:01;;;;;;;3.75;2.90;;;22.40;99.90;;;;;;7390253;19;20176;-79
2022/06/30 00:11:27;;;;;;;4.97;2.88;;;22.30;99.90;;;;;;7389671;19;20176;-74
2022/06/30 00:13:53;;;;;;;5.88;2.75;;;22.10;99.90;;;;;;7391991;19;20134;-74
2022/06/30 00:16:20;;;;;;;3.28;2.97;;;22.30;99.90;;;;;;7392513;19;20238;-74
2022/06/30 00:18:45;;;;;;;3.20;2.85;;;22.50;99.90;;;;;;7389706;19;20138;-75
2022/06/30 00:21:11;;;;;;;3.03;2.72;;;22.70;99.90;;;;;;7387979;19;20158;-75
2022/06/30 00:23:38;;;;;;;4.65;2.55;;;22.80;99.90;;;;;;7383216;19;20146;-75
2022/06/30 00:26:04;;;;;;;3.67;3.20;;;22.90;99.90;;;;;;7388423;19;20146;-78
2022/06/30 00:28:30;;;;;;;4.55;3.08;;;22.90;99.90;;;;;;7387010;19;20150;-75
2022/06/30 00:30:55;;;;;;;7.00;3.10;;;22.80;99.90;;;;;;7386440;19;20138;-74
2022/06/30 00:33:21;;;;;;;3.28;2.88;;;22.70;99.90;;;;;;7387194;19;20161;-74
2022/06/30 00:35:47;;;;;;;3.47;3.15;;;22.30;99.90;;;;;;7389188;19;20218;-75
2022/06/30 00:38:13;;;;;;;6.57;3.67;;;22.20;99.90;;;;;;7390191;19;20149;-75
2022/06/30 00:40:42;;;;;;;5.63;3.25;;;21.90;99.90;;;;;;7389369;19;20142;-79
2022/06/30 00:43:08;;;;;;;3.78;3.35;;;22.00;99.90;;;;;;7389664;19;20511;-75
2022/06/30 00:45:43;;;;;;;4.63;3.45;;;22.20;99.90;;;;;;7384325;19;20135;-78
2022/06/30 00:48:10;;;;;;;3.90;2.80;;;22.40;99.90;;;;;;7385237;19;20133;-79
2022/06/30 00:50:36;;;;;;;4.97;2.60;;;22.50;99.90;;;;;;7386709;19;20150;-78
2022/06/30 00:53:06;;;;;;;5.03;2.78;;;22.60;99.90;;;;;;7394704;19;20156;-75
2022/06/30 00:55:34;;;;;;;4.35;2.80;;;22.50;99.90;;;;;;7393319;19;20226;-79
2022/06/30 00:58:03;;;;;;;6.35;3.00;;;22.50;99.90;;;;;;7393649;19;20146;-75
2022/06/30 01:00:39;;;;;;;4.80;2.50;;;22.60;99.90;;;;;;7400173;19;20218;-75
2022/06/30 01:03:07;;;;;;;3.70;2.85;;;22.50;99.90;;;;;;7396056;19;20150;-75
2022/06/30 01:05:33;;;;;;;3.83;2.80;;;22.50;99.90;;;;;;7388621;19;20202;-74
2022/06/30 01:08:01;;;;;;;5.53;2.72;;;22.60;99.90;;;;;;7396000;19;20139;-75
2022/06/30 01:13:11;;;;;;;3.13;2.83;;;22.60;99.90;;;;;;7392361;19;20632;-74
2022/06/30 01:15:38;;;;;;;4.90;2.70;;;22.50;99.90;;;;;;7394546;19;20142;-79
2022/06/30 01:18:03;;;;;;;3.15;2.47;;;22.40;99.90;;;;;;7394769;19;20151;-79
2022/06/30 01:20:31;;;;;;;4.15;2.85;;;22.20;99.90;;;;;;7392147;19;20155;-73
2022/06/30 01:22:58;;;;;;;2.65;2.45;;;22.30;99.90;;;;;;7390426;19;20159;-75
2022/06/30 01:25:25;;;;;;;3.88;2.33;;;22.20;99.90;;;;;;7390038;19;20157;-79
2022/06/30 01:27:54;;;;;;;2.50;2.30;;;22.10;99.90;;;;;;7393283;19;20150;-74
2022/06/30 01:30:21;;;;;;;4.63;2.08;;;21.90;99.90;;;;;;7394170;19;20560;-74
2022/06/30 01:32:47;;;;;;;3.35;2.45;;;21.70;99.90;;;;;;7396110;19;20162;-74
2022/06/30 01:35:13;;;;;;;2.72;2.47;;;21.40;99.90;;;;;;7396004;19;20139;-75
2022/06/30 01:37:47;;;;;;;2.65;2.40;;;21.30;99.90;;;;;;7391951;19;20176;-80
2022/06/30 01:40:14;;;;;;;4.13;2.80;;;21.60;99.90;;;;;;7392937;19;20130;-75
2022/06/30 01:42:39;;;;;;;2.40;2.03;;;21.80;99.90;;;;;;7394796;19;20131;-79
2022/06/30 01:45:06;;;;;;;3.33;2.45;;;21.90;99.90;;;;;;7390186;19;20137;-75
2022/06/30 01:47:32;;;;;;;2.67;2.25;;;21.80;99.90;;;;;;7402060;19;20194;-79
2022/06/30 01:49:58;;;;;;;3.70;2.30;;;21.50;99.90;;;;;;7395204;19;20131;-80
2022/06/30 01:52:24;;;;;;;3.25;2.40;;;21.50;99.90;;;;;;7392713;19;20151;-79
2022/06/30 01:54:50;;;;;;;2.63;1.90;;;21.50;99.90;;;;;;7394388;19;20126;-75
2022/06/30 01:57:15;;;;;;;2.33;2.13;;;21.70;99.90;;;;;;7390965;19;20142;-75
2022/06/30 01:59:41;;;;;;;2.78;2.35;;;21.80;99.90;;;;;;7393012;19;20134;-75
2022/06/30 02:02:07;;;;;;;2.33;2.13;;;21.90;99.90;;;;;;7392966;19;20152;-74
2022/06/30 02:04:47;;;;;;;2.42;2.20;;;21.90;99.90;;;;;;7386697;19;20138;-79
2022/06/30 02:07:18;;;;;;;3.63;2.33;;;21.90;99.90;;;;;;7389296;19;20141;-75
2022/06/30 02:09:44;;;;;;;5.63;2.42;;;21.90;99.90;;;;;;7392258;19;20159;-74
2022/06/30 02:15:10;;;;;;;4.15;2.70;;;21.70;99.90;;;;;;7390959;19;20146;-76
2022/06/30 02:17:36;;;;;;;3.65;2.80;;;21.70;99.90;;;;;;7391033;19;20146;-74
2022/06/30 02:20:03;;;;;;;3.60;2.90;;;21.70;99.90;;;;;;7390898;19;20589;-74
2022/06/30 02:22:29;;;;;;;6.32;2.97;;;22.00;99.90;;;;;;7393010;19;20141;-78
2022/06/30 02:24:55;;;;;;;4.47;2.20;;;21.90;99.90;;;;;;7391789;19;20139;-75
2022/06/30 02:27:23;;;;;;;3.92;2.60;;;21.80;99.90;;;;;;7392072;19;20623;-79
2022/06/30 02:29:51;;;;;;;2.95;2.65;;;21.90;99.90;;;;;;7387128;19;20153;-74
2022/06/30 02:32:17;;;;;;;2.90;2.60;;;21.80;99.90;;;;;;7391519;19;20126;-79
2022/06/30 02:34:43;;;;;;;2.53;2.30;;;21.80;99.90;;;;;;7394551;19;20139;-75
2022/06/30 02:37:09;;;;;;;3.10;2.50;;;21.80;99.90;;;;;;7387343;19;20142;-80
2022/06/30 02:39:35;;;;;;;2.75;2.55;;;21.80;99.90;;;;;;7392118;19;20131;-80
2022/06/30 02:42:01;;;;;;;3.30;2.45;;;21.70;99.90;;;;;;7391840;19;20154;-75
2022/06/30 02:44:26;;;;;;;2.88;2.42;;;21.70;99.90;;;;;;7392177;19;20153;-80
2022/06/30 02:46:54;;;;;;;5.88;2.92;;;21.70;99.90;;;;;;7388172;19;20210;-77
2022/06/30 02:49:21;;;;;;;4.18;2.78;;;21.70;99.90;;;;;;7392369;19;20173;-78
2022/06/30 02:51:48;;;;;;;3.35;2.30;;;21.60;99.90;;;;;;7389875;19;20146;-76
2022/06/30 02:54:14;;;;;;;3.17;2.33;;;21.70;99.90;;;;;;7391109;19;20135;-79
2022/06/30 02:56:40;;;;;;;3.03;2.70;;;21.80;99.90;;;;;;7392110;19;20157;-75
2022/06/30 02:59:06;;;;;;;3.72;2.67;;;21.80;99.90;;;;;;7393055;19;20218;-76
2022/06/30 03:01:32;;;;;;;3.42;2.58;;;21.70;99.90;;;;;;7392346;19;20147;-80
2022/06/30 03:04:01;;;;;;;3.33;2.35;;;21.70;99.90;;;;;;7389552;19;20158;-75
2022/06/30 03:06:28;;;;;;;4.28;3.05;;;21.30;99.90;;;;;;7386940;19;20613;-80
2022/06/30 03:08:58;;;;;;;3.63;2.45;;;21.20;99.90;;;;;;7389261;19;20142;-80
2022/06/30 03:11:24;;;;;;;2.97;2.30;;;21.30;99.90;;;;;;7390481;19;20154;-75
2022/06/30 03:13:50;;;;;;;4.20;2.63;;;21.30;99.90;;;;;;7390202;19;20142;-76
2022/06/30 03:16:17;;;;;;;6.13;2.83;;;21.40;99.90;;;;;;7388572;19;20138;-79
2022/06/30 03:18:43;;;;;;;3.22;2.20;;;21.50;99.90;;;;;;7389096;19;20143;-79
2022/06/30 03:21:10;;;;;;;3.67;2.38;;;21.50;99.90;;;;;;7393463;19;20171;-76
2022/06/30 03:23:36;;;;;;;6.38;2.65;;;21.50;99.90;;;;;;7392746;19;20129;-76
2022/06/30 03:26:03;;;;;;;2.65;2.40;;;21.50;99.90;;;;;;7389774;19;20138;-76
2022/06/30 03:28:29;;;;;;;3.92;2.35;;;21.40;99.90;;;;;;7390818;19;20210;-79
2022/06/30 03:30:55;;;;;;;2.53;2.33;;;21.30;99.90;;;;;;7387765;19;20123;-76
2022/06/30 03:33:21;;;;;;;5.25;2.35;;;21.40;99.90;;;;;;7390945;19;20462;-75
2022/06/30 03:35:47;;;;;;;3.78;2.75;;;21.40;99.90;;;;;;7390397;19;20130;-76
2022/06/30 03:38:14;;;;;;;3.80;2.70;;;21.40;99.90;;;;;;7390199;19;20167;-75
2022/06/30 03:40:40;;;;;;;4.90;2.53;;;21.40;99.90;;;;;;7390910;19;20567;-79
2022/06/30 03:43:07;;;;;;;4.43;2.45;;;21.30;99.90;;;;;;7390676;19;20488;-76
2022/06/30 03:45:33;;;;;;;3.30;3.00;;;21.30;99.90;;;;;;7391169;19;20155;-77
2022/06/30 03:48:06;;;;;;;3.92;3.10;;;21.40;99.90;;;;;;7392895;19;20140;-75
2022/06/30 03:50:33;;;;;;;3.95;3.00;;;21.40;99.90;;;;;;7391402;19;20139;-77
2022/06/30 03:52:59;;;;;;;6.47;4.80;;;21.40;99.90;;;;;;7389842;19;20165;-76
2022/06/30 03:55:26;;;;;;;6.68;3.83;;;21.10;99.90;;;;;;7390825;19;20131;-79
2022/06/30 03:57:52;;;;;;;6.18;3.10;;;21.20;99.90;;;;;;7390328;19;20159;-77
2022/06/30 04:00:18;;;;;;;3.95;2.70;;;21.30;99.90;;;;;;7390007;19;20127;-77
2022/06/30 04:02:44;;;;;;;3.40;2.83;;;21.40;99.90;;;;;;7391607;19;20130;-77
2022/06/30 04:05:10;;;;;;;5.82;3.28;;;21.40;99.90;;;;;;7389454;19;20173;-79
2022/06/30 04:07:43;;;;;;;4.63;3.20;;;21.50;99.90;;;;;;7389132;19;20135;-78
2022/06/30 04:10:10;;;;;;;4.53;3.03;;;21.50;99.90;;;;;;7392224;19;20158;-76
2022/06/30 04:12:36;;;;;;;4.00;2.97;;;21.30;99.90;;;;;;7392166;19;20143;-76
2022/06/30 04:15:02;;;;;;;6.78;3.13;;;21.40;99.90;;;;;;7390163;19;20609;-76
2022/06/30 04:17:28;;;;;;;3.67;2.67;;;21.40;99.90;;;;;;7387265;19;20138;-76
2022/06/30 04:19:54;;;;;;;3.83;2.70;;;21.40;99.90;;;;;;7387745;19;20533;-80
2022/06/30 04:22:20;;;;;;;2.65;2.45;;;21.50;99.90;;;;;;7388639;19;20150;-76
2022/06/30 04:24:46;;;;;;;3.10;2.80;;;21.30;99.90;;;;;;7388730;19;20634;-79
2022/06/30 04:27:12;;;;;;;3.83;3.13;;;21.30;99.90;;;;;;7390394;19;20167;-77
2022/06/30 04:29:38;;;;;;;3.88;3.10;;;21.10;99.90;;;;;;7397553;19;20147;-79
2022/06/30 04:34:48;;;;;;;3.10;2.80;;;21.00;99.90;;;;;;7398698;19;20143;-79
2022/06/30 04:37:16;;;;;;;7.60;3.35;;;21.10;99.90;;;;;;7398029;19;20149;-76
2022/06/30 04:39:42;;;;;;;4.80;3.30;;;21.20;99.90;;;;;;7395789;19;20147;-80
2022/06/30 04:42:07;;;;;;;3.70;2.80;;;21.20;99.90;;;;;;7396885;19;20478;-76
2022/06/30 04:44:33;;;;;;;3.30;2.88;;;21.40;99.90;;;;;;7393195;19;20142;-77
2022/06/30 04:46:59;;;;;;;5.07;3.17;;;21.40;99.90;;;;;;7393286;19;20594;-77
2022/06/30 04:49:25;;;;;;;4.20;3.20;;;21.40;99.90;;;;;;7394109;19;20141;-79
2022/06/30 04:51:51;;;;;;;3.15;2.85;;;21.40;99.90;;;;;;7395309;19;20158;-77
2022/06/30 04:54:17;;;;;;;3.42;3.13;;;21.50;99.90;;;;;;7393274;19;20154;-79
2022/06/30 04:56:42;;;;;;;4.82;3.22;;;21.20;99.90;;;;;;7399938;19;20146;-78
2022/06/30 04:59:08;;;;;;;3.60;3.28;;;21.30;99.90;;;;;;7397297;19;20150;-80
2022/06/30 05:01:34;;;;;;;3.40;3.10;;;21.40;99.90;;;;;;7395647;19;20142;-80
2022/06/30 05:04:00;;;;;;;6.30;3.60;;;21.50;99.90;;;;;;7394503;19;20143;-77
2022/06/30 05:06:26;;;;;;;4.10;3.50;;;21.50;99.90;;;;;;7394547;19;20598;-80
2022/06/30 05:08:51;;;;;;;8.80;4.20;;;21.20;99.90;;;;;;7392181;19;20134;-80
2022/06/30 05:11:17;;;;;;;4.97;3.45;;;21.40;99.90;;;;;;7396596;19;20222;-81
2022/06/30 05:13:43;;;;;;;5.40;4.13;;;21.50;99.90;;;;;;7396131;19;20137;-77
2022/06/30 05:16:09;;;;;;;5.32;4.13;;;21.60;99.90;;;;;;7398261;19;20138;-77
2022/06/30 05:18:35;;;;;;;7.20;4.43;;;21.60;99.90;;;;;;7400545;19;20182;-77
2022/06/30 05:21:01;;;;;;;5.68;4.18;;;21.70;99.90;;;;;;7394689;19;20165;-81
2022/06/30 05:23:27;;;;;;;5.45;3.95;;;21.60;99.90;;;;;;7396007;19;20194;-77
2022/06/30 05:28:37;;;;;;;4.85;3.88;;;21.60;99.90;;;;;;7394471;19;20499;-76
2022/06/30 05:31:03;;;;;;;7.82;4.82;;;21.70;99.90;;;;;;7391102;19;20153;-77
2022/06/30 05:33:29;;;;;;;5.43;4.18;;;21.80;99.90;;;;;;7390140;19;20163;-78
2022/06/30 05:35:54;;;;;;;6.80;4.05;;;21.90;99.90;;;;;;7390416;19;20143;-77
2022/06/30 05:38:20;;;;;;;5.43;3.92;;;21.80;99.90;;;;;;7396667;19;20150;-79
2022/06/30 05:40:46;;;;;;;5.78;3.90;;;21.90;99.90;;;;;;7397062;19;20620;-77
2022/06/30 05:43:17;;;;;;;4.53;4.07;;;21.70;99.90;;;;;;7393520;19;20138;-79
2022/06/30 05:45:46;;;;;;;5.90;3.70;;;21.70;99.90;;;;;;7394382;19;20527;-76
2022/06/30 05:48:12;;;;;;;4.38;3.90;;;21.50;99.90;;;;;;7389595;19;20130;-78
2022/06/30 05:50:38;;;;;;;4.20;3.80;;;21.70;99.90;;;;;;7395873;19;20147;-78
2022/06/30 05:53:04;;;;;;;6.25;4.10;;;22.00;99.90;;;;;;7393952;19;20177;-81
2022/06/30 05:55:30;;;;;;;5.03;4.13;;;22.10;99.90;;;;;;7390389;19;20182;-79
2022/06/30 05:57:58;;;;;;;4.43;3.92;;;22.10;99.90;;;;;;7394330;19;20203;-81
2022/06/30 06:00:27;;;;;;;6.10;4.07;;;22.10;99.90;;;;;;7397783;19;20198;-79
2022/06/30 06:02:53;;;;;;;9.95;4.82;;;22.30;99.90;;;;;;7394282;19;20652;-80
2022/06/30 06:05:19;;;;;;;5.32;4.75;;;22.30;99.90;;;;;;7390909;19;20146;-78
2022/06/30 06:07:45;;;;;;;6.47;4.50;;;22.30;99.90;;;;;;7394789;19;20161;-82
2022/06/30 06:10:13;;;;;;;7.13;4.57;;;22.30;99.90;;;;;;7393271;19;20496;-78
2022/06/30 06:12:40;;;;;;;6.93;4.75;;;22.20;99.90;;;;;;7392362;19;20146;-81
2022/06/30 06:15:06;;;;;;;8.77;4.15;;;22.40;99.90;;;;;;7395463;19;20138;-81
2022/06/30 06:17:42;;;;;;;7.25;4.22;;;22.90;99.90;;;;;;7395896;19;20142;-79
2022/06/30 06:20:10;;;;;;;7.18;4.78;;;23.50;99.90;;;;;;7393669;19;20181;-80
2022/06/30 06:22:36;;;;;;;5.93;4.18;;;23.80;99.90;;;;;;7396680;19;20222;-79
2022/06/30 06:25:01;;;;;;;5.35;4.47;;;24.20;99.90;;;;;;7389303;19;20171;-79
2022/06/30 06:27:27;;;;;;;5.40;4.50;;;24.70;99.90;;;;;;7392168;19;20139;-78
2022/06/30 06:29:53;;;;;;;5.00;4.50;;;25.10;99.90;;;;;;7391456;19;20139;-80
2022/06/30 06:32:21;;;;;;;5.60;4.57;;;25.50;99.90;;;;;;7388610;19;20143;-78
2022/06/30 06:34:47;;;;;;;4.82;4.15;;;25.90;99.90;;;;;;7389353;19;20138;-79
2022/06/30 06:37:13;;;;;;;6.05;4.43;;;26.30;99.90;;;;;;7390908;19;20143;-78
2022/06/30 06:39:39;;;;;;;6.75;4.30;;;26.60;99.90;;;;;;7393924;19;20134;-78
2022/06/30 06:42:05;;;;;;;6.28;4.35;;;26.80;99.90;;;;;;7395215;19;20144;-78
2022/06/30 06:44:31;;;;;;;9.48;4.95;;;26.80;99.90;;;;;;7389739;19;20154;-79
2022/06/30 06:46:57;;;;;;;6.07;4.63;;;27.00;99.90;;;;;;7389118;19;20139;-76
2022/06/30 06:49:23;;;;;;;5.75;4.47;;;27.20;99.90;;;;;;7391377;19;20142;-81
2022/06/30 06:51:49;;;;;;;7.80;4.60;;;27.20;99.90;;;;;;7391640;19;20162;-81
2022/06/30 06:54:14;;;;;;;6.18;4.60;;;27.20;99.90;;;;;;7392199;19;20402;-82
2022/06/30 06:56:40;;;;;;;6.35;3.85;;;27.60;99.90;;;;;;7391700;19;20172;-77
2022/06/30 06:59:06;;;;;;;7.55;4.32;;;27.80;99.90;;;;;;7390925;19;20155;-76
2022/06/30 07:01:33;;;;;;;5.95;4.00;;;27.90;99.90;;;;;;7388641;19;20158;-76
2022/06/30 07:03:58;;;;;;;6.53;4.25;;;28.10;99.90;;;;;;7394406;19;20197;-79
2022/06/30 07:06:24;;;;;;;7.05;5.20;;;28.40;99.90;;;;;;7387688;19;20131;-78
2022/06/30 07:08:50;;;;;;;4.47;3.50;;;28.70;99.90;;;;;;7386868;19;20134;-79
2022/06/30 07:11:16;;;;;;;7.97;3.85;;;28.90;99.90;;;;;;7392688;19;20131;-79
2022/06/30 07:13:42;;;;;;;4.03;3.60;;;29.10;99.90;;;;;;7389845;19;20150;-77
2022/06/30 07:16:07;;;;;;;6.43;4.00;;;29.30;99.90;;;;;;7386987;19;20166;-79
2022/06/30 07:18:33;;;;;;;3.72;3.30;;;29.50;99.90;;;;;;7388198;19;20146;-76
2022/06/30 07:20:59;;;;;;;7.40;4.03;;;29.60;99.90;;;;;;7386034;19;20641;-76
2022/06/30 07:23:25;;;;;;;4.00;3.60;;;29.50;99.90;;;;;;7390592;19;20152;-81
2022/06/30 07:25:51;;;;;;;5.25;3.90;;;29.30;99.90;;;;;;7395906;19;20143;-82
2022/06/30 07:28:17;;;;;;;5.68;3.35;;;29.30;99.90;;;;;;7392298;19;20769;-83
2022/06/30 07:30:43;;;;;;;4.63;3.47;;;29.40;99.90;;;;;;7388848;19;20134;-79
2022/06/30 07:33:09;;;;;;;6.20;3.55;;;29.60;99.90;;;;;;7387969;19;20166;-76
2022/06/30 07:35:35;;;;;;;6.82;2.90;;;29.70;99.90;;;;;;7385344;19;20597;-75
2022/06/30 07:38:00;;;;;;;4.72;3.38;;;29.90;99.90;;;;;;7388102;19;20146;-75
2022/06/30 07:40:26;;;;;;;8.65;5.40;;;30.10;99.90;;;;;;7389202;19;20152;-76
2022/06/30 07:42:52;;;;;;;6.38;3.30;;;30.10;99.90;;;;;;7387273;19;20155;-76
2022/06/30 07:45:21;;;;;;;4.20;3.03;;;30.10;99.90;;;;;;7386280;19;20158;-76
2022/06/30 07:47:48;;;;;;;4.07;3.53;;;30.00;99.90;;;;;;7391612;19;20142;-76
2022/06/30 07:50:16;;;;;;;5.63;3.50;;;30.00;99.90;;;;;;7391465;19;20135;-76
2022/06/30 07:52:43;;;;;;;5.43;3.35;;;29.90;99.90;;;;;;7390798;19;20636;-75
2022/06/30 07:55:09;;;;;;;5.07;3.33;;;29.90;99.90;;;;;;7388728;19;20143;-75
2022/06/30 07:57:42;;;;;;;4.50;3.03;;;29.90;99.90;;;;;;7390805;19;20154;-75
2022/06/30 08:00:09;;;;;;;5.45;3.58;;;30.20;99.90;;;;;;7387286;19;20151;-73
2022/06/30 08:02:35;;;;;;;5.90;3.28;;;30.10;99.90;;;;;;7411403;19;20162;-76
2022/06/30 08:05:01;;;;;;;4.38;2.72;;;29.90;99.90;;;;;;7393513;19;20261;-75
2022/06/30 08:07:28;;;;;;;6.88;3.70;;;29.80;99.90;;;;;;7399771;19;20206;-74
2022/06/30 08:09:54;;;;;;;3.50;3.00;;;29.80;99.90;;;;;;7396691;19;20135;-74
2022/06/30 08:12:20;;;;;;;7.05;3.42;;;30.10;99.90;;;;;;7399266;19;20143;-75
2022/06/30 08:14:46;;;;;;;3.40;2.85;;;30.30;99.90;;;;;;7399375;19;20154;-75
2022/06/30 08:17:12;;;;;;;4.05;3.65;;;30.40;99.90;;;;;;7394079;19;20152;-74
2022/06/30 08:19:38;;;;;;;6.78;4.13;;;30.50;99.90;;;;;;7398082;19;20147;-75
2022/06/30 08:22:04;;;;;;;5.05;3.15;;;30.80;99.90;;;;;;7394855;19;20161;-75
2022/06/30 08:24:30;;;;;;;4.10;3.45;;;31.10;99.90;;;;;;7396872;19;20143;-75
2022/06/30 08:26:58;;;;;;;3.97;3.38;;;31.40;99.90;;;;;;7392951;19;20134;-75
2022/06/30 08:29:24;;;;;;;4.10;3.53;;;31.00;99.90;;;;;;7396096;19;20134;-76
2022/06/30 08:31:49;;;;;;;6.63;3.47;;;30.80;99.90;;;;;;7396168;19;20542;-73
2022/06/30 08:34:17;;;;;;;4.45;2.83;;;31.20;99.90;;;;;;7395519;19;20138;-75
2022/06/30 08:36:42;;;;;;;5.57;3.13;;;31.00;99.90;;;;;;7393589;19;20150;-75
2022/06/30 08:42:02;;;;;;;5.70;3.75;;;31.00;99.90;;;;;;7401498;19;20176;-75
2022/06/30 08:42:04;;;;;;;4.35;3.08;;;31.00;99.90;;;;;;7395764;19;20154;-75
2022/06/30 08:44:35;;;;;;;4.43;3.10;;;30.90;99.90;;;;;;7394517;19;20154;-75
2022/06/30 08:47:03;;;;;;;5.35;3.47;;;31.00;99.90;;;;;;7392677;19;20147;-75
2022/06/30 08:49:29;;;;;;;5.07;2.67;;;31.30;99.90;;;;;;7392919;19;20149;-74
2022/06/30 08:51:59;;;;;;;4.03;2.80;;;31.20;99.90;;;;;;7391865;19;20134;-75
2022/06/30 08:54:26;;;;;;;3.70;2.90;;;31.00;99.90;;;;;;7393416;19;20167;-74
2022/06/30 08:56:56;;;;;;;3.38;2.80;;;30.90;99.90;;;;;;7393980;19;20218;-76
2022/06/30 08:59:24;;;;;;;5.55;3.10;;;30.90;99.90;;;;;;7388335;19;20155;-75
2022/06/30 09:01:50;;;;;;;3.35;3.00;;;30.70;99.90;;;;;;7395843;19;20142;-75
2022/06/30 09:04:16;;;;;;;3.10;2.90;;;30.60;99.90;;;;;;7391464;19;20139;-75
2022/06/30 09:06:45;;;;;;;4.88;3.17;;;30.50;99.90;;;;;;7392448;19;20161;-76
2022/06/30 09:09:11;;;;;;;3.97;2.63;;;30.50;99.90;;;;;;7388591;19;20150;-75
2022/06/30 09:11:49;;;;;;;2.67;2.47;;;30.30;99.90;;;;;;7391475;19;20553;-75
2022/06/30 09:14:33;;;;;;;4.57;3.35;;;30.00;99.90;;;;;;7393619;19;20138;-76
2022/06/30 09:16:59;;;;;;;3.50;3.05;;;29.90;99.90;;;;;;7395474;19;20166;-74
2022/06/30 09:19:25;;;;;;;9.40;3.08;;;29.70;99.90;;;;;;7392991;19;20134;-73
2022/06/30 09:22:14;;;;;;;3.28;2.42;;;29.20;99.90;;;;;;7391982;19;20661;-75
2022/06/30 09:24:40;;;;;;;4.28;2.40;;;29.00;99.90;;;;;;7395451;19;20142;-75
2022/06/30 09:27:11;;;;;;;4.07;3.03;;;28.90;99.90;;;;;;7390214;19;20182;-75
2022/06/30 09:30:02;;;;;;;4.50;2.75;;;28.90;99.90;;;;;;7392281;19;20127;-75
2022/06/30 09:32:28;;;;;;;3.20;2.55;;;29.10;99.90;;;;;;7392728;19;20142;-75
2022/06/30 09:35:09;;;;;;;4.95;3.17;;;29.30;99.90;;;;;;7394272;19;20537;-75
2022/06/30 09:37:35;;;;;;;4.95;3.10;;;29.70;99.90;;;;;;7392704;19;20151;-75
2022/06/30 09:40:01;;;;;;;3.08;1.85;;;29.80;99.90;;;;;;7392163;19;20142;-76
2022/06/30 09:42:41;;;;;;;2.45;1.80;;;30.00;97.90;;;;;;7390931;19;20608;-75
2022/06/30 09:45:09;;;;;;;3.13;1.92;;;30.00;97.50;;;;;;7390781;19;20237;-74
2022/06/30 09:47:36;;;;;;;4.80;2.35;;;30.10;97.40;;;;;;7391524;19;20138;-75
2022/06/30 09:50:06;;;;;;;3.60;3.05;;;30.10;97.80;;;;;;7390438;19;20143;-75
2022/06/30 09:52:33;;;;;;;4.15;2.70;;;29.80;99.70;;;;;;7393157;19;20185;-74
2022/06/30 09:55:06;;;;;;;5.57;2.92;;;29.60;99.90;;;;;;7394937;19;20143;-75
2022/06/30 09:57:37;;;;;;;4.18;2.90;;;29.70;99.90;;;;;;7390934;19;20134;-75
2022/06/30 10:00:10;;;;;;;6.25;3.75;;;29.50;99.70;;;;;;7392005;19;20170;-74
2022/06/30 10:02:41;;;;;;;6.60;2.95;;;29.40;99.90;;;;;;7395381;19;20594;-74
2022/06/30 10:05:09;;;;;;;3.38;2.50;;;29.10;99.90;;;;;;7395229;19;20661;-75
2022/06/30 10:07:37;;;;;;;4.35;2.78;;;29.10;99.90;;;;;;7390596;19;20229;-75
2022/06/30 10:10:06;;;;;;;2.70;2.50;;;29.00;99.90;;;;;;7393512;19;20134;-74
2022/06/30 10:12:32;;;;;;;3.53;3.00;;;29.30;99.90;;;;;;7391770;19;20155;-74
2022/06/30 10:14:59;;;;;;;4.03;2.80;;;29.20;99.90;;;;;;7391492;19;20142;-75
2022/06/30 10:17:27;;;;;;;3.10;2.83;;;29.20;99.90;;;;;;7392231;19;20134;-74
2022/06/30 10:19:54;;;;;;;4.32;3.05;;;29.00;99.90;;;;;;7386801;19;20151;-75
2022/06/30 10:22:22;;;;;;;4.82;2.70;;;28.80;99.90;;;;;;7389674;19;20478;-74
2022/06/30 10:24:50;;;;;;;2.50;2.25;;;28.80;99.90;;;;;;7393515;19;20180;-75
2022/06/30 10:27:21;;;;;;;2.85;2.55;;;29.10;99.90;;;;;;7390963;19;20170;-74
2022/06/30 10:29:55;;;;;;;4.28;2.55;;;29.30;99.50;;;;;;7391461;19;20245;-73
2022/06/30 10:32:24;;;;;;;4.63;2.22;;;29.30;98.70;;;;;;7387982;19;20134;-74
2022/06/30 10:34:59;;;;;;;3.67;2.33;;;29.40;98.20;;;;;;7391424;19;20222;-74
2022/06/30 10:37:43;;;;;;;3.63;2.25;;;29.50;98.00;;;;;;7388608;19;20126;-73
2022/06/30 10:40:20;;;;;;;5.18;2.20;;;29.70;97.90;;;;;;7389290;19;20154;-74
2022/06/30 10:42:47;;;;;;;3.58;2.20;;;29.90;97.30;;;;;;7389274;19;20461;-75
2022/06/30 10:45:33;;;;;;;5.72;3.72;;;29.90;96.60;;;;;;7389136;19;20134;-74
2022/06/30 10:48:07;;;;;;;10.60;8.15;;;29.80;96.60;;;;;;7393004;19;20143;-75
2022/06/30 10:50:37;;;;;;;3.08;2.75;;;29.80;96.00;;;;;;7386515;19;20176;-75
2022/06/30 10:53:06;;;;;;;2.53;1.80;;;29.80;96.60;;;;;;7392210;19;20146;-74
2022/06/30 10:55:53;;;;;;;3.38;2.35;;;29.80;96.10;;;;;;7389840;19;20604;-73
2022/06/30 10:58:22;;;;;;;6.45;3.85;;;29.90;96.00;;;;;;7392620;19;20146;-76
2022/06/30 11:00:50;;;;;;;9.15;4.18;;;30.00;95.40;;;;;;7389623;19;20222;-74
2022/06/30 11:03:38;;;;;;;4.22;2.17;;;29.90;95.40;;;;;;7385705;19;20157;-75
2022/06/30 11:06:09;;;;;;;6.13;2.30;;;29.90;95.30;;;;;;7389984;19;20158;-74
2022/06/30 11:08:57;;;;;;;12.73;7.90;;;29.80;96.10;;;;;;7391325;19;20569;-73
2022/06/30 11:11:23;;;;;;;3.78;2.60;;;29.80;96.50;;;;;;7393569;19;20708;-73
2022/06/30 11:14:02;;;;;;;2.90;2.55;;;29.90;96.50;;;;;;7390788;19;20138;-75
2022/06/30 11:16:29;;;;;;;3.67;2.40;;;30.00;96.00;;;;;;7388880;19;20146;-74
2022/06/30 11:18:55;;;;;;;4.70;2.70;;;29.90;96.00;;;;;;7388633;19;20230;-74
2022/06/30 11:21:22;;;;;;;2.95;2.10;;;29.90;96.00;;;;;;7388607;19;20618;-75
2022/06/30 11:23:49;;;;;;;9.52;5.15;;;29.80;96.20;;;;;;7387928;19;20150;-75
2022/06/30 11:29:04;;;;;;;4.97;3.63;;;29.70;95.00;;;;;;7391178;19;20142;-74
2022/06/30 11:31:38;;;;;;;5.47;2.53;;;29.60;95.60;;;;;;7394434;19;20138;-75
2022/06/30 11:34:09;;;;;;;2.67;1.90;;;29.60;95.30;;;;;;7391489;19;20157;-76
2022/06/30 11:36:37;;;;;;;3.85;2.38;;;29.60;95.20;;;;;;7388240;19;20150;-76
2022/06/30 11:39:07;;;;;;;2.72;2.13;;;29.60;95.40;;;;;;7387564;19;20138;-74
2022/06/30 11:44:18;;;;;;;4.53;2.17;;;29.60;95.20;;;;;;7380338;19;20134;-74
2022/06/30 11:47:02;;;;;;;3.45;2.50;;;29.70;95.30;;;;;;7378594;19;20182;-73
2022/06/30 11:49:49;;;;;;;4.05;2.22;;;29.80;95.20;;;;;;7378262;19;20134;-73
2022/06/30 11:52:18;;;;;;;3.50;2.30;;;29.90;94.60;;;;;;7383443;19;20154;-73
2022/06/30 11:54:50;;;;;;;3.97;2.30;;;29.80;94.90;;;;;;7379355;19;20153;-74
2022/06/30 11:57:17;;;;;;;3.60;2.38;;;29.70;94.90;;;;;;7385860;19;20158;-74
2022/06/30 11:59:47;;;;;;;7.97;2.30;;;29.60;95.20;;;;;;7391468;19;20123;-73
2022/06/30 12:02:14;;;;;;;3.88;2.60;;;29.40;95.30;;;;;;7387043;19;20162;-75
2022/06/30 12:04:41;;;;;;;2.60;2.35;;;29.50;95.10;;;;;;7385642;19;20150;-75
2022/06/30 12:07:11;;;;;;;2.83;2.53;;;29.50;95.30;;;;;;7387714;19;20154;-74
2022/06/30 12:09:38;;;;;;;3.83;2.50;;;29.70;95.10;;;;;;7392164;19;20131;-76
2022/06/30 12:12:05;;;;;;;3.65;2.20;;;29.90;94.90;;;;;;7391369;19;20585;-75
2022/06/30 12:14:33;;;;;;;2.75;2.17;;;30.00;94.20;;;;;;7386554;19;20145;-75
2022/06/30 12:16:59;;;;;;;3.08;2.45;;;30.20;93.70;;;;;;7386236;19;20143;-74
2022/06/30 12:19:25;;;;;;;2.35;1.98;;;30.30;94.00;;;;;;7391463;19;20139;-74
2022/06/30 12:21:55;;;;;;;3.20;2.05;;;30.20;94.40;;;;;;7389070;19;20169;-76
2022/06/30 12:24:23;;;;;;;5.38;2.42;;;30.30;94.40;;;;;;7389285;19;20150;-74
2022/06/30 12:26:53;;;;;;;3.65;2.85;;;30.20;94.40;;;;;;7386731;19;20574;-76
2022/06/30 12:29:21;;;;;;;4.80;3.00;;;30.50;94.30;;;;;;7388205;19;20215;-74
2022/06/30 12:32:05;;;;;;;3.03;2.38;;;30.40;94.50;;;;;;7385764;19;20242;-75
2022/06/30 12:34:46;;;;;;;5.05;2.65;;;30.40;94.40;;;;;;7387763;19;20139;-74
2022/06/30 12:37:12;;;;;;;3.53;2.35;;;30.60;94.40;;;;;;7388879;19;20139;-75
2022/06/30 12:39:44;;;;;;;1.95;1.77;;;30.60;93.10;;;;;;7389962;19;20250;-75
2022/06/30 12:42:11;;;;;;;3.80;2.00;;;30.60;93.40;;;;;;7389131;19;20144;-75
2022/06/30 12:44:38;;;;;;;3.45;2.00;;;30.60;92.60;;;;;;7386604;19;20131;-75
2022/06/30 12:47:07;;;;;;;2.65;1.92;;;30.60;92.70;;;;;;7389408;19;20139;-74
2022/06/30 12:49:33;;;;;;;3.22;2.20;;;30.60;92.10;;;;;;7395582;19;20142;-75
2022/06/30 12:51:59;;;;;;;4.20;2.20;;;30.60;92.70;;;;;;7396462;19;20166;-73
2022/06/30 12:54:27;;;;;;;3.17;1.95;;;30.60;92.60;;;;;;7397814;19;20150;-75
2022/06/30 12:57:05;;;;;;;2.47;2.28;;;30.60;92.80;;;;;;7396736;19;20157;-75
2022/06/30 12:59:31;;;;;;;4.85;1.80;;;30.70;92.50;;;;;;7392566;19;20235;-75
2022/06/30 13:02:00;;;;;;;3.20;1.95;;;30.60;92.30;;;;;;7396185;19;20144;-74
2022/06/30 13:04:29;;;;;;;4.30;2.10;;;30.60;92.10;;;;;;7393608;19;20146;-74
2022/06/30 13:06:56;;;;;;;5.18;2.20;;;30.70;92.10;;;;;;7393745;19;20146;-73
2022/06/30 13:09:27;;;;;;;2.25;2.05;;;30.70;92.50;;;;;;7394587;19;20180;-74